Nickerson, Nebraska
Current Conditions -  °F | °C
As of 10:35 AM on Thursday 29 Jan 2015 (Local Time) from KFET Reporting Station
Overcast Overcast  
Wind Chill: 27°   Ceiling: 2200
Heat Index: 37°   Visibility: 10mi
Dew Point: 28°   Wind: 18mph
Humidity: 69%   Direction: 330°NNW
Pressure: 30.42"   Gusts: 25mph
Location:  41.53°N, 96.47°W
Report Text: KFET 291635Z AUTO 33016G22KT 10SM OVC022 03/M02 A3042 RMK AO2 T00301021
Loading
Personal Weather Stations






























Interactive Weather Map New forecast layout! Learn more

10-Day Weather Forecast

Advertisements
Track Severe Weather on mobile